Aktualne dane pomiarowe

Uwaga, wersja testowa! Automatyczne pobieranie danych za pomocą narzędzi lub skryptów to umożliwiających jest zabronione.

Dane meteo z obszaru Polski uzyskane na podstawie depesz SYNOP pobieranych co godzinę z NWS. Najedź myszką na symbol przedstawiony w tabeli, aby uzyskać informacje co do jego znaczenia. Prosimy pamiętać, że to testowa wersja strony, która jeszcze nie jest ukończona. Stworzono również jest krótki FAQ dotyczący korzystania z tej podstrony Anomalie temperatury w chwili obecnej odniesione są do okresu referencyjnego 1951-2016. Okres ten będzie później zmieniony na 1981-2010. Kliknij ikonę aby pobrać plik CSV. Kliknij ikonę aby wygenerować mapę synoptyczną dla danego terminu.

Wybierz Datę:    

        

Kielce-Suków (12570)

Dane terminowe dla wybranej stacji. Kliknij datę, aby otrzymać dane z tego terminu dla wszystkich stacji.

TemperaturaZachmurzenieWiatrCiśnienieOpadyPogoda
 Data t td wb tx tn tg rh  Nt Nl Cl Cm Ch ws wd g1 g2 wx mslp ppp ch 24h 12h t ww ww w1 w2  
2019-08-08 23:00:00 14.7 13.7 14.0--- 9417.0wx-wx1wx--11013.9 983.0 0.9----22----
2019-08-08 22:00:00 15.2 14.1 14.4--- 9315.0wxwxwxwx1wx--11013.7 982.8 0.7----22----
2019-08-08 21:00:00 15.8 14.5 14.9--- 9215.0wxwxwxwx1wx--11013.4 982.6 0.7----22----
2019-08-08 20:00:00 16.9 15.1 15.6--- 8925.0wx-wx0----1012.8 982.1 0.5---------
2019-08-08 19:00:00 18.1 15.0 16.0--- 8230.0wx-wxwx0---01012.6 982.1 0.5---------
2019-08-08 18:00:00 20.4 14.3 16.4 25.0 18.0- 6840.0wx-wxwx1wx-811012.2 981.9 0.2- 0.012------
2019-08-08 17:00:00 23.1 13.0 16.8--- 5345.0wxwxwxwx1wx--11011.6 981.6 -0.2---------
2019-08-08 16:00:00 24.1 11.8 16.6--- 4640.0wxwxwxwxwx3wx---1011.5 981.6 -0.1---------
2019-08-08 15:00:00 24.6 12.2 17.0--- 4635.0wxwxwxwxwx3wx---1011.5 981.7 0.2---------
2019-08-08 14:00:00 24.1 13.0 17.2--- 5040.0wxwxwxwxwx2wx-821011.7 981.8 0.7---------
2019-08-08 13:00:00 24.1 15.0 18.2--- 5735.0wxwxwxwxwx3wx-831011.6 981.7 0.7---------
2019-08-08 12:00:00 23.8 15.0 18.1--- 5840.0wxwxwxwxwx3wx-1031011.4 981.5 0.9- 0.06------
2019-08-08 11:00:00 22.2 13.3 16.6--- 5745.0wxwxwxwx3wx-931011.2 981.1 0.9---------
2019-08-08 10:00:00 22.7 15.3 17.9--- 6335.0wxwxwx3wx81031011.0 981.0 1.2---------
2019-08-08 09:00:00 21.1 15.9 17.6--- 7227.0wxwxwx3wx9931010.8 980.6 1.6---------
2019-08-08 08:00:00 19.8 17.0 17.8--- 8422.0wxwxwx3wx-831010.5 980.2 2.3---------
2019-08-08 07:00:00 18.6 16.7 17.2--- 8919.0wxwxwx3wx-831010.2 979.8 2.9---------
2019-08-08 06:00:00 18.0 16.8 17.1 20.6 17.4 17 9319.0wxwxwx3wx-731009.4 979.0 2.3 15.7 15.012wx-w1w2- 4.4
2019-08-08 05:00:00 17.6 17.0 17.2--- 9630.0wxwxwx2wx---1008.3 977.9 1.4---------
2019-08-08 04:00:00 17.5 17.0 17.1--- 9735.0wxwxwxwx2wx---1007.3 976.9 0.5---wx---
2019-08-08 03:00:00 17.9 17.7 17.7--- 993.1wxwxwxwx3wx--31007.1 976.7 0.4---wx-w1w2--
2019-08-08 02:00:00 17.9 17.6 17.7--- 985.0wxwxwxwx2wx--21006.9 976.5 0.1---wx-w1w2--
2019-08-08 01:00:00 18.0 17.5 17.6--- 9710.0wxwxwxwx1wx--11006.8 976.4 -1.0---wx-w1--
2019-08-08 00:00:00 18.4 17.7 17.9--- 9617.0wxwxwxwx3wx--31006.6 976.3 0.0- 9.06wx-w1w2--
2019-08-07 23:00:00 18.4 17.7 17.9--- 965.0wxwxwxwx1wx--11006.7 976.4 -0.2---wx---
2019-08-07 22:00:00 18.3 18.0 18.1--- 988.0wxwxwxwx2wx--21007.8 977.4 0.1---wx-w1--
2019-08-07 21:00:00 17.9 17.4 17.5--- 978.0wx-wxwx0---01006.7 976.3 -1.4---wx-w1w2--
2019-08-07 20:00:00 18.3 17.3 17.6--- 9417.0wx-wxwx1wx---1006.9 976.6 -0.9---wx---
2019-08-07 19:00:00 18.9 17.7 18.0--- 9350.0wxwxwxwxwx2wx---1007.6 977.3 -0.4---wx-w1--
2019-08-07 18:00:00 20.5 19.5 19.8 25.8 19.5- 9410.0wxwxwxwx2wx-1021007.8 977.7 0.0- 0.612wx-w1--
2019-08-07 17:00:00 22.1 19.3 20.1--- 8435.0wxwxwxwxwx3wx--31007.5 977.5 -0.6---wx---
2019-08-07 16:00:00 22.6 18.8 19.9--- 7925.0wxwxwxwxwx4wx-1041007.6 977.7 -0.8---wx-w1--
2019-08-07 15:00:00 25.0 18.0 20.3--- 6540.0wxwxwxwx2wx--21007.4 977.7 -1.5---------
2019-08-07 14:00:00 25.6 16.7 19.7--- 5840.0wxwxwx1wx---1007.7 978.1 -1.2---------
2019-08-07 13:00:00 25.3 16.2 19.3--- 5745.0wxwxwxwxwx2wx--21008.2 978.5 -1.0---------
2019-08-07 12:00:00 23.8 15.6 18.4--- 6040.0wxwxwxwx3wx--31009.0 979.2 -0.5--6wx-w1--
2019-08-07 11:00:00 24.4 15.9 18.8--- 5930.0wxwxwxwx4wx--41009.1 979.3 -0.1---wx---
2019-08-07 10:00:00 24.3 17.3 19.6--- 6540.0wxwxwxwx2wx--21009.3 979.5 0.2---------
2019-08-07 09:00:00 24.0 17.0 19.3--- 6535.0wx-wx1wx--11009.5 979.7 0.2---------
2019-08-07 08:00:00 22.8 17.0 18.9--- 7030.0wx-wx2wx--21009.4 979.4 -0.3---------
2019-08-07 07:00:00 21.4 17.6 18.7--- 7925.0wx-wx2wx--21009.4 979.3 -0.2---------
2019-08-07 06:00:00 19.5 17.8 18.3 24.6 16.0 15 9020.0wx-wxwx1wx--11009.8 979.5 -0.1 0.6 0.612wx-w1w2- 8.7
2019-08-07 05:00:00 17.7 17.1 17.3--- 968.0wx-wxwx1wx--11010.2 979.7 0.1---wx---
2019-08-07 04:00:00 16.0 16.0 16.0--- 1000.9wxwxwxwxwx1wx---1010.2 979.5 -0.2---wx-w1--
2019-08-07 03:00:00 16.2 16.2 16.2--- 1000.7wxwxwxwxwx1wx--11010.3 979.6 -0.3---wx-w1--
2019-08-07 02:00:00 17.4 16.8 17.0--- 967.0wx-wxwx1wx--11010.1 979.6 -0.3---wx---
2019-08-07 01:00:00 18.1 17.3 17.5--- 9511.0wxwxwxwx2wx--21010.2 979.7 -0.4---wx---
2019-08-07 00:00:00 19.1 16.7 17.4--- 8612.0wxwxwxwx1wx--11010.3 979.9 -0.1--6wx-w1--
1.2 ms

 

Print Friendly, PDF & Email